Terminal Aerodrome Forecast
Issued by NWS Billings, MT

Home | Current Version | Previous Version | Text Only | Print | Product List | Glossary Off
Versions: 1 2 3 4 5 6 7 8 9 10 11 12 13 14 15 16

000
FTUS45 KBYZ 182336
TAFMLS
TAF
KMLS 182336Z 1900/1924 34014KT P6SM VCTS SCT060CB BKN080
     FM190200 31014KT P6SM VCSH SCT060 BKN080
     FM190400 27012KT P6SM FEW080=

USA.gov is the U.S. government's official web portal to all federal, state and local government web resources and services.